createdAt,value
2018-09-26T00:01:56.305Z,4.20
2018-09-26T00:04:27.097Z,5.57
2018-09-26T00:06:56.406Z,4.87
2018-09-26T00:09:24.992Z,4.50
2018-09-26T00:11:53.594Z,4.60
2018-09-26T00:14:22.236Z,4.40
2018-09-26T00:16:50.921Z,4.80
2018-09-26T00:19:19.497Z,4.40
2018-09-26T00:21:49.093Z,4.30
2018-09-26T00:24:17.768Z,5.13
2018-09-26T00:26:46.386Z,4.80
2018-09-26T00:29:15.029Z,5.07
2018-09-26T00:31:43.607Z,4.63
2018-09-26T00:34:12.229Z,4.87
2018-09-26T00:36:40.848Z,4.53
2018-09-26T00:39:09.442Z,4.57
2018-09-26T00:41:38.173Z,4.47
2018-09-26T00:44:06.858Z,5.17
2018-09-26T00:46:35.485Z,5.13
2018-09-26T00:49:04.070Z,4.37
2018-09-26T00:51:32.660Z,4.90
2018-09-26T00:54:01.330Z,4.40
2018-09-26T00:56:29.988Z,5.07
2018-09-26T00:58:58.588Z,4.60
2018-09-26T01:01:27.191Z,5.03
2018-09-26T01:03:55.847Z,4.87
2018-09-26T01:06:24.427Z,4.80
2018-09-26T01:08:53.188Z,4.23
2018-09-26T01:11:21.765Z,4.53
2018-09-26T01:13:50.349Z,5.23
2018-09-26T01:16:18.900Z,4.37
2018-09-26T01:18:47.518Z,5.23
2018-09-26T01:21:16.178Z,5.20
2018-09-26T01:23:44.725Z,4.60
2018-09-26T01:26:13.318Z,5.13
2018-09-26T01:28:41.903Z,4.47
2018-09-26T01:31:10.461Z,4.63
2018-09-26T01:33:39.042Z,4.93
2018-09-26T01:36:07.670Z,4.77
2018-09-26T01:38:36.206Z,4.27
2018-09-26T01:41:05.444Z,5.17
2018-09-26T01:43:34.099Z,4.70
2018-09-26T01:46:02.715Z,5.27
2018-09-26T01:48:31.259Z,4.70
2018-09-26T01:50:59.869Z,4.83
2018-09-26T01:53:28.423Z,5.00
2018-09-26T01:55:56.984Z,4.77
2018-09-26T01:58:25.564Z,4.80
2018-09-26T02:00:54.224Z,4.70
2018-09-26T02:03:22.784Z,4.70
2018-09-26T02:05:51.401Z,5.10
2018-09-26T02:08:19.939Z,4.50
2018-09-26T02:10:48.497Z,4.40
2018-09-26T02:13:17.038Z,5.27
2018-09-26T02:15:45.583Z,4.73
2018-09-26T02:18:14.151Z,4.63
2018-09-26T02:20:42.717Z,5.20
2018-09-26T02:23:11.273Z,4.63
2018-09-26T02:25:39.865Z,4.73
2018-09-26T02:28:08.475Z,4.53
2018-09-26T02:30:37.059Z,4.90
2018-09-26T02:33:05.752Z,4.63
2018-09-26T02:35:34.393Z,5.13
2018-09-26T02:38:02.968Z,4.60
2018-09-26T02:40:31.661Z,5.43
2018-09-26T02:43:00.338Z,4.50
2018-09-26T02:45:28.928Z,5.70
2018-09-26T02:47:57.513Z,5.13
2018-09-26T02:50:26.123Z,4.80
2018-09-26T02:52:54.729Z,4.60
2018-09-26T02:55:23.501Z,4.60
2018-09-26T02:57:59.390Z,4.20
2018-09-26T03:00:27.981Z,5.40
2018-09-26T03:02:56.605Z,5.40
2018-09-26T03:05:25.227Z,5.30
2018-09-26T03:07:53.807Z,5.73
2018-09-26T03:10:22.402Z,4.77
2018-09-26T03:12:52.811Z,4.97
2018-09-26T03:15:21.399Z,5.93
2018-09-26T03:17:49.952Z,5.60
2018-09-26T03:20:18.519Z,5.47
2018-09-26T03:22:47.114Z,5.93
2018-09-26T03:25:15.689Z,5.67
2018-09-26T03:27:44.270Z,6.10
2018-09-26T03:30:12.873Z,5.90
2018-09-26T03:32:41.477Z,6.43
2018-09-26T03:35:10.032Z,6.60
2018-09-26T03:37:38.637Z,6.63
2018-09-26T03:40:07.249Z,6.53
2018-09-26T03:42:35.765Z,6.17
2018-09-26T03:45:04.891Z,6.80
2018-09-26T03:47:33.497Z,6.33
2018-09-26T03:50:02.079Z,6.17
2018-09-26T03:52:30.660Z,5.90
2018-09-26T03:54:59.951Z,6.37
2018-09-26T03:57:28.518Z,7.27
2018-09-26T03:59:57.170Z,6.97
2018-09-26T04:02:25.810Z,6.57
2018-09-26T04:04:54.485Z,6.97
2018-09-26T04:07:23.039Z,6.47
2018-09-26T04:09:51.569Z,6.80
2018-09-26T04:12:20.277Z,7.23
2018-09-26T04:14:48.897Z,6.70
2018-09-26T04:17:17.477Z,7.40
2018-09-26T04:19:46.027Z,6.90
2018-09-26T04:22:14.599Z,7.13
2018-09-26T04:24:43.232Z,7.27
2018-09-26T04:27:11.914Z,7.17
2018-09-26T04:29:40.485Z,7.80
2018-09-26T04:32:09.121Z,6.80
2018-09-26T04:34:37.729Z,5.90
2018-09-26T04:37:06.583Z,7.20
2018-09-26T04:39:35.164Z,6.97
2018-09-26T04:42:03.720Z,6.50
2018-09-26T04:44:32.353Z,7.10
2018-09-26T04:47:00.955Z,7.60
2018-09-26T04:49:29.584Z,6.47
2018-09-26T04:51:58.204Z,7.63
2018-09-26T04:54:26.849Z,8.33
2018-09-26T04:56:55.451Z,8.57
2018-09-26T04:59:24.089Z,7.90
2018-09-26T05:01:52.694Z,8.10
2018-09-26T05:04:21.288Z,8.43
2018-09-26T05:06:49.866Z,9.47
2018-09-26T05:09:18.504Z,7.60
2018-09-26T05:11:47.105Z,8.67
2018-09-26T05:14:15.689Z,8.60
2018-09-26T05:16:44.370Z,9.00
2018-09-26T05:19:12.991Z,8.67
2018-09-26T05:21:41.602Z,9.30
2018-09-26T05:24:10.234Z,8.73
2018-09-26T05:26:38.896Z,9.13
2018-09-26T05:29:07.494Z,9.30
2018-09-26T05:31:36.131Z,9.07
2018-09-26T05:34:04.799Z,9.50
2018-09-26T05:36:33.423Z,9.20
2018-09-26T05:39:02.019Z,9.37
2018-09-26T05:41:30.680Z,10.00
2018-09-26T05:43:59.281Z,10.00
2018-09-26T05:46:27.891Z,11.03
2018-09-26T05:48:56.494Z,10.40
2018-09-26T05:51:25.146Z,8.83
2018-09-26T05:53:53.694Z,10.23
2018-09-26T05:56:22.322Z,10.30
2018-09-26T05:58:50.961Z,10.03
2018-09-26T06:01:19.608Z,11.03
2018-09-26T06:03:48.199Z,10.13
2018-09-26T06:06:16.976Z,10.10
2018-09-26T06:08:45.560Z,11.30
2018-09-26T06:11:14.170Z,10.73
2018-09-26T06:13:42.933Z,10.53
2018-09-26T06:16:11.575Z,10.57
2018-09-26T06:18:40.513Z,11.40
2018-09-26T06:21:09.395Z,10.53
2018-09-26T06:23:38.212Z,10.80
2018-09-26T06:26:07.003Z,11.03
2018-09-26T06:28:35.790Z,10.67
2018-09-26T06:31:04.413Z,11.10
2018-09-26T06:33:32.989Z,11.30
2018-09-26T06:36:01.546Z,10.50
2018-09-26T06:38:30.183Z,11.33
2018-09-26T06:40:58.807Z,11.03
2018-09-26T06:43:27.360Z,11.63
2018-09-26T06:45:55.914Z,11.53
2018-09-26T06:48:24.489Z,10.03
2018-09-26T06:50:53.144Z,11.60
2018-09-26T06:53:21.758Z,10.83
2018-09-26T06:55:50.417Z,11.07
2018-09-26T06:58:19.070Z,10.43
2018-09-26T07:00:47.728Z,10.30
2018-09-26T07:03:16.323Z,10.43
2018-09-26T07:05:44.913Z,11.20
2018-09-26T07:08:13.842Z,9.87
2018-09-26T07:10:42.408Z,9.77
2018-09-26T07:13:11.170Z,10.40
2018-09-26T07:15:39.820Z,10.07
2018-09-26T07:18:08.786Z,10.03
2018-09-26T07:20:37.458Z,10.60
2018-09-26T07:26:05.396Z,10.20
2018-09-26T07:28:34.048Z,10.70
2018-09-26T07:31:02.763Z,9.63
2018-09-26T07:33:31.317Z,10.70
2018-09-26T07:35:59.941Z,10.33
2018-09-26T07:38:28.728Z,10.27
2018-09-26T07:40:57.452Z,9.67
2018-09-26T07:43:26.287Z,9.27
2018-09-26T07:45:54.890Z,10.50
2018-09-26T07:48:23.617Z,10.10
2018-09-26T07:50:52.292Z,10.10
2018-09-26T07:53:20.909Z,9.73
2018-09-26T07:55:49.609Z,10.60
2018-09-26T07:58:18.224Z,10.43
2018-09-26T08:00:46.880Z,9.60
2018-09-26T08:03:15.496Z,10.90
2018-09-26T08:05:44.116Z,9.40
2018-09-26T08:08:12.729Z,10.77
2018-09-26T08:10:41.344Z,9.80
2018-09-26T08:13:10.131Z,10.63
2018-09-26T08:15:38.758Z,7.17
2018-09-26T08:18:07.408Z,4.50
2018-09-26T08:20:36.061Z,3.03
2018-09-26T08:23:04.735Z,3.03
2018-09-26T08:25:33.347Z,2.93
2018-09-26T08:28:01.980Z,3.17
2018-09-26T08:30:30.556Z,3.03
2018-09-26T08:32:59.212Z,3.00
2018-09-26T08:35:27.816Z,2.63
2018-09-26T08:37:56.447Z,3.03
2018-09-26T08:40:25.065Z,2.50
2018-09-26T08:42:53.726Z,3.53
2018-09-26T08:45:22.530Z,2.73
2018-09-26T08:47:51.234Z,2.80
2018-09-26T08:50:19.937Z,2.63
2018-09-26T08:52:48.597Z,3.00
2018-09-26T08:55:17.285Z,3.43
2018-09-26T08:57:46.109Z,3.77
2018-09-26T09:00:14.796Z,2.80
2018-09-26T09:02:43.553Z,2.60
2018-09-26T09:05:12.264Z,2.37
2018-09-26T09:07:40.850Z,2.57
2018-09-26T09:10:09.440Z,2.73
2018-09-26T09:12:38.107Z,2.30
2018-09-26T09:15:06.761Z,2.77
2018-09-26T09:17:35.447Z,2.60
2018-09-26T09:20:04.263Z,2.67
2018-09-26T09:22:32.871Z,2.73
2018-09-26T09:25:01.473Z,1.90
2018-09-26T09:27:30.085Z,1.83
2018-09-26T09:29:58.728Z,2.60
2018-09-26T09:32:27.347Z,2.17
2018-09-26T09:34:55.988Z,2.67
2018-09-26T09:37:24.639Z,2.30
2018-09-26T09:39:53.225Z,2.50
2018-09-26T09:42:21.975Z,2.63
2018-09-26T09:44:50.739Z,2.20
2018-09-26T09:47:19.403Z,1.90
2018-09-26T09:49:47.992Z,2.40
2018-09-26T09:52:16.632Z,2.40
2018-09-26T09:54:45.294Z,2.77
2018-09-26T09:57:14.167Z,2.23
2018-09-26T09:59:42.993Z,2.40
2018-09-26T10:02:11.726Z,2.20
2018-09-26T10:04:40.419Z,2.47
2018-09-26T10:07:09.147Z,2.00
2018-09-26T10:09:37.807Z,2.07
2018-09-26T10:12:07.597Z,1.67
2018-09-26T10:14:36.319Z,2.70
2018-09-26T10:17:05.048Z,2.60
2018-09-26T10:19:33.776Z,2.37
2018-09-26T10:22:02.468Z,2.10
2018-09-26T10:24:31.118Z,2.73
2018-09-26T10:26:59.767Z,2.40
2018-09-26T10:29:28.391Z,2.00
2018-09-26T10:31:56.985Z,1.90
2018-09-26T10:34:25.577Z,2.20
2018-09-26T10:36:54.166Z,2.70
2018-09-26T10:39:22.881Z,2.13
2018-09-26T10:41:51.454Z,2.00
2018-09-26T10:44:20.196Z,2.30
2018-09-26T10:46:48.826Z,2.63
2018-09-26T10:49:17.435Z,2.03
2018-09-26T10:51:46.045Z,2.20
2018-09-26T10:54:14.628Z,2.10
2018-09-26T10:56:43.336Z,2.27
2018-09-26T10:59:12.046Z,2.07
2018-09-26T11:01:40.601Z,2.13
2018-09-26T11:04:09.232Z,2.13
2018-09-26T11:06:37.753Z,2.10
2018-09-26T11:09:08.990Z,2.50
2018-09-26T11:11:37.809Z,2.43
2018-09-26T11:14:06.533Z,2.10
2018-09-26T11:16:35.809Z,2.13
2018-09-26T11:19:04.419Z,2.20
2018-09-26T11:21:33.158Z,1.97
2018-09-26T11:24:01.861Z,1.73
2018-09-26T11:26:30.596Z,2.27
2018-09-26T11:28:59.225Z,2.00
2018-09-26T11:31:27.936Z,2.07
2018-09-26T11:33:56.644Z,2.30
2018-09-26T11:36:25.288Z,2.03
2018-09-26T11:38:54.080Z,2.50
2018-09-26T11:41:23.083Z,2.10
2018-09-26T11:43:51.735Z,1.80
2018-09-26T11:46:20.351Z,1.93
2018-09-26T11:48:48.919Z,2.03
2018-09-26T11:51:17.588Z,2.37
2018-09-26T11:53:46.603Z,2.23
2018-09-26T11:56:15.493Z,2.13
2018-09-26T11:58:44.188Z,2.03
2018-09-26T12:01:12.811Z,1.70
2018-09-26T12:03:41.463Z,2.20
2018-09-26T12:06:10.044Z,2.87
2018-09-26T12:08:38.693Z,2.67
2018-09-26T12:11:07.337Z,1.87
2018-09-26T12:13:35.997Z,1.90
2018-09-26T12:16:04.713Z,1.77
2018-09-26T12:18:33.398Z,2.13
2018-09-26T12:21:02.043Z,1.90
2018-09-26T12:23:30.659Z,2.27
2018-09-26T12:25:59.285Z,2.07
2018-09-26T12:28:27.872Z,2.57
2018-09-26T12:30:56.612Z,2.23
2018-09-26T12:33:25.276Z,2.17
2018-09-26T12:35:54.341Z,2.53
2018-09-26T12:38:23.037Z,2.00
2018-09-26T12:40:52.288Z,2.13
2018-09-26T12:43:20.897Z,2.10
2018-09-26T12:45:49.516Z,1.70
2018-09-26T12:48:18.195Z,2.53
2018-09-26T12:50:46.802Z,2.07
2018-09-26T12:53:16.602Z,1.77
2018-09-26T12:55:45.405Z,2.07
2018-09-26T12:58:14.036Z,2.33
2018-09-26T13:00:42.690Z,2.50
2018-09-26T13:03:11.206Z,2.03
2018-09-26T13:05:39.948Z,1.50
2018-09-26T13:08:08.643Z,2.00
2018-09-26T13:10:38.786Z,2.20
2018-09-26T13:13:07.831Z,2.07
2018-09-26T13:15:36.474Z,1.70
2018-09-26T13:18:05.077Z,2.50
2018-09-26T13:20:33.693Z,2.30
2018-09-26T13:23:02.399Z,2.00
2018-09-26T13:25:31.288Z,1.90
2018-09-26T13:28:00.919Z,2.07
2018-09-26T13:30:34.830Z,2.60
2018-09-26T13:33:03.490Z,2.13
2018-09-26T13:35:32.053Z,2.23
2018-09-26T13:38:00.711Z,2.10
2018-09-26T13:40:29.349Z,1.80
2018-09-26T13:42:57.990Z,1.67
2018-09-26T13:45:26.680Z,1.60
2018-09-26T13:47:55.345Z,2.07
2018-09-26T13:50:24.180Z,1.87
2018-09-26T13:52:53.985Z,1.90
2018-09-26T13:55:22.693Z,2.63
2018-09-26T13:57:51.446Z,1.97
2018-09-26T14:00:20.135Z,1.97
2018-09-26T14:02:48.980Z,1.97
2018-09-26T14:05:17.746Z,2.10
2018-09-26T14:07:46.922Z,1.90
2018-09-26T14:10:15.508Z,1.73
2018-09-26T14:12:44.861Z,2.10
2018-09-26T14:15:13.452Z,1.80
2018-09-26T14:17:42.059Z,2.17
2018-09-26T14:20:11.585Z,1.90
2018-09-26T14:22:40.231Z,2.57
2018-09-26T14:25:08.898Z,2.20
2018-09-26T14:27:37.529Z,2.00
2018-09-26T14:30:06.230Z,2.43
2018-09-26T14:32:34.791Z,2.00
2018-09-26T14:35:03.456Z,2.00
2018-09-26T14:37:32.101Z,2.37
2018-09-26T14:40:00.724Z,1.90
2018-09-26T14:42:30.079Z,1.80
2018-09-26T14:44:58.738Z,1.80
2018-09-26T14:47:27.492Z,2.50
2018-09-26T14:49:56.006Z,2.00
2018-09-26T14:52:25.798Z,2.43
2018-09-26T14:54:54.629Z,2.27
2018-09-26T14:57:23.241Z,1.80
2018-09-26T14:59:51.863Z,2.20
2018-09-26T15:02:20.585Z,1.57
2018-09-26T15:04:50.223Z,1.83
2018-09-26T15:07:18.928Z,1.87
2018-09-26T15:09:47.470Z,1.87
2018-09-26T15:12:16.138Z,2.43
2018-09-26T15:14:45.410Z,2.20
2018-09-26T15:17:14.099Z,2.17
2018-09-26T15:19:42.771Z,2.33
2018-09-26T15:22:11.394Z,2.77
2018-09-26T15:24:40.050Z,2.60
2018-09-26T15:27:08.658Z,2.07
2018-09-26T15:29:37.294Z,2.27
2018-09-26T15:32:05.979Z,2.17
2018-09-26T15:34:34.595Z,1.90
2018-09-26T15:37:03.211Z,2.30
2018-09-26T15:39:31.760Z,2.90
2018-09-26T15:42:01.120Z,2.63
2018-09-26T15:44:30.829Z,2.37
2018-09-26T15:46:59.544Z,2.43
2018-09-26T15:49:28.206Z,2.30
2018-09-26T15:51:56.844Z,2.83
2018-09-26T15:54:25.515Z,3.33
2018-09-26T15:56:54.301Z,3.50
2018-09-26T15:59:23.666Z,3.20
2018-09-26T16:01:52.399Z,3.67
2018-09-26T16:04:22.458Z,4.83
2018-09-26T16:06:51.133Z,2.17
2018-09-26T16:09:20.024Z,2.53
2018-09-26T16:11:49.128Z,2.37
2018-09-26T16:14:18.017Z,2.63
2018-09-26T16:16:46.670Z,2.13
2018-09-26T16:19:15.437Z,2.20
2018-09-26T16:21:44.126Z,2.13
2018-09-26T16:24:12.837Z,2.13
2018-09-26T16:26:42.004Z,2.40
2018-09-26T16:29:11.267Z,1.90
2018-09-26T16:31:40.013Z,2.03
2018-09-26T16:34:08.973Z,2.50
2018-09-26T16:36:37.646Z,2.23
2018-09-26T16:39:09.989Z,2.50
2018-09-26T16:41:38.552Z,2.23
2018-09-26T16:44:07.221Z,3.70
2018-09-26T16:46:36.170Z,2.73
2018-09-26T16:49:05.263Z,1.70
2018-09-26T16:51:33.945Z,3.03
2018-09-26T16:54:02.623Z,2.17
2018-09-26T16:56:31.383Z,2.40
2018-09-26T16:59:00.027Z,2.53
2018-09-26T17:01:29.945Z,2.67
2018-09-26T17:03:58.602Z,2.60
2018-09-26T17:06:27.306Z,2.47
2018-09-26T17:08:59.090Z,3.00
2018-09-26T17:11:27.733Z,3.40
2018-09-26T17:13:56.291Z,7.10
2018-09-26T17:16:25.062Z,3.30
2018-09-26T17:18:53.617Z,2.37
2018-09-26T17:21:22.177Z,3.03
2018-09-26T17:23:50.758Z,2.43
2018-09-26T17:26:19.487Z,3.50
2018-09-26T17:28:48.156Z,2.87
2018-09-26T17:31:16.757Z,7.37
2018-09-26T17:33:45.355Z,3.40
2018-09-26T17:36:13.967Z,2.90
2018-09-26T17:38:42.857Z,3.60
2018-09-26T17:41:11.540Z,3.90
2018-09-26T17:43:40.251Z,2.50
2018-09-26T17:46:09.106Z,2.40
2018-09-26T17:48:37.672Z,2.53
2018-09-26T17:51:06.290Z,2.27
2018-09-26T17:53:34.834Z,5.93
2018-09-26T17:56:03.461Z,5.40
2018-09-26T17:58:32.070Z,2.43
2018-09-26T18:01:01.484Z,2.70
2018-09-26T18:03:30.109Z,2.70
2018-09-26T18:05:58.687Z,2.60
2018-09-26T18:08:27.513Z,2.77
2018-09-26T18:10:56.134Z,2.60
2018-09-26T18:13:24.755Z,2.90
2018-09-26T18:15:53.334Z,2.00
2018-09-26T18:18:21.894Z,2.33
2018-09-26T18:20:50.526Z,2.63
2018-09-26T18:23:19.208Z,3.30
2018-09-26T18:25:47.833Z,2.53
2018-09-26T18:28:16.473Z,2.40
2018-09-26T18:30:45.149Z,2.27
2018-09-26T18:33:13.742Z,2.50
2018-09-26T18:35:43.416Z,2.43
2018-09-26T18:38:12.202Z,3.30
2018-09-26T18:40:40.889Z,2.20
2018-09-26T18:43:09.520Z,3.43
2018-09-26T18:45:38.112Z,3.50
2018-09-26T18:48:06.785Z,3.27
2018-09-26T18:50:35.377Z,2.97
2018-09-26T18:53:04.152Z,3.10
2018-09-26T18:55:32.809Z,2.60
2018-09-26T18:58:01.478Z,2.63
2018-09-26T19:00:30.106Z,2.57
2018-09-26T19:02:58.883Z,2.90
2018-09-26T19:05:27.423Z,2.67
2018-09-26T19:07:56.493Z,2.63
2018-09-26T19:10:25.079Z,5.67
2018-09-26T19:12:53.724Z,7.93
2018-09-26T19:15:22.452Z,3.77
2018-09-26T19:17:51.062Z,4.60
2018-09-26T19:20:19.689Z,4.70
2018-09-26T19:22:48.549Z,6.53
2018-09-26T19:25:17.271Z,4.67
2018-09-26T19:27:45.940Z,3.13
2018-09-26T19:30:14.909Z,3.40
2018-09-26T19:32:43.777Z,3.33
2018-09-26T19:35:12.631Z,2.87
2018-09-26T19:37:41.455Z,3.00
2018-09-26T19:40:10.413Z,3.93
2018-09-26T19:42:39.992Z,2.87
2018-09-26T19:45:08.856Z,3.40
2018-09-26T19:47:37.518Z,2.97
2018-09-26T19:50:06.224Z,3.80
2018-09-26T19:52:34.927Z,3.67
2018-09-26T19:55:04.187Z,3.33
2018-09-26T19:57:32.785Z,4.33
2018-09-26T20:00:01.435Z,3.33
2018-09-26T20:02:30.671Z,4.03
2018-09-26T20:04:59.246Z,4.43
2018-09-26T20:07:27.915Z,3.13
2018-09-26T20:09:56.554Z,3.97
2018-09-26T20:12:25.188Z,4.43
2018-09-26T20:14:53.824Z,3.87
2018-09-26T20:17:22.412Z,4.00
2018-09-26T20:19:51.005Z,3.43
2018-09-26T20:22:19.660Z,4.40
2018-09-26T20:24:48.241Z,3.47
2018-09-26T20:27:17.013Z,3.97
2018-09-26T20:29:45.749Z,3.83
2018-09-26T20:32:14.289Z,3.93
2018-09-26T20:34:43.020Z,3.10
2018-09-26T20:37:11.771Z,3.40
2018-09-26T20:39:40.372Z,4.70
2018-09-26T20:42:09.053Z,4.13
2018-09-26T20:44:37.661Z,3.70
2018-09-26T20:47:06.298Z,5.03
2018-09-26T20:49:34.972Z,3.73
2018-09-26T20:52:03.679Z,4.30
2018-09-26T20:54:33.587Z,3.80
2018-09-26T20:57:02.280Z,3.90
2018-09-26T20:59:30.966Z,3.33
2018-09-26T21:01:59.605Z,3.90
2018-09-26T21:04:28.392Z,4.77
2018-09-26T21:06:57.153Z,4.23
2018-09-26T21:09:25.809Z,18.73
2018-09-26T21:11:57.116Z,5.50
2018-09-26T21:14:25.901Z,3.47
2018-09-26T21:16:54.483Z,3.77
2018-09-26T21:19:23.085Z,15.72
2018-09-26T21:21:51.663Z,8.17
2018-09-26T21:24:20.268Z,5.00
2018-09-26T21:26:48.915Z,4.30
2018-09-26T21:29:17.523Z,3.67
2018-09-26T21:31:46.148Z,3.70
2018-09-26T21:34:14.926Z,3.93
2018-09-26T21:36:43.621Z,3.27
2018-09-26T21:39:12.253Z,3.40
2018-09-26T21:41:40.809Z,3.50
2018-09-26T21:44:10.143Z,3.83
2018-09-26T21:46:39.009Z,3.57
2018-09-26T21:49:07.756Z,3.50
2018-09-26T21:51:36.479Z,3.77
2018-09-26T21:54:05.062Z,3.87
2018-09-26T21:56:33.659Z,3.73
2018-09-26T21:59:02.266Z,3.37
2018-09-26T22:01:31.430Z,3.53
2018-09-26T22:04:00.225Z,3.70
2018-09-26T22:06:28.735Z,3.73
2018-09-26T22:08:57.266Z,4.37
2018-09-26T22:11:25.760Z,3.90
2018-09-26T22:13:55.226Z,3.90
2018-09-26T22:16:23.709Z,3.67
2018-09-26T22:18:52.311Z,3.73
2018-09-26T22:21:20.847Z,3.60
2018-09-26T22:23:49.349Z,4.53
2018-09-26T22:26:17.879Z,4.83
2018-09-26T22:28:46.542Z,4.63
2018-09-26T22:31:15.447Z,4.00
2018-09-26T22:33:43.919Z,3.80
2018-09-26T22:36:12.390Z,3.97
2018-09-26T22:38:40.898Z,3.47
2018-09-26T22:41:09.384Z,3.87
2018-09-26T22:43:37.832Z,4.30
2018-09-26T22:46:06.422Z,3.73
2018-09-26T22:48:34.900Z,3.53
2018-09-26T22:51:03.391Z,3.63
2018-09-26T22:53:31.891Z,3.73
2018-09-26T22:56:00.369Z,4.00
2018-09-26T22:58:28.855Z,4.10
2018-09-26T23:00:57.363Z,3.63
2018-09-26T23:03:25.836Z,4.47
2018-09-26T23:05:54.325Z,3.93
2018-09-26T23:08:22.876Z,3.40
2018-09-26T23:10:51.354Z,4.33
2018-09-26T23:13:19.873Z,4.70
2018-09-26T23:15:48.406Z,4.00
2018-09-26T23:18:16.865Z,3.73
2018-09-26T23:20:45.362Z,4.57
2018-09-26T23:23:14.115Z,4.30
2018-09-26T23:25:44.858Z,3.67
2018-09-26T23:28:13.326Z,3.97
2018-09-26T23:30:41.786Z,3.97
2018-09-26T23:33:10.313Z,4.07
2018-09-26T23:35:38.819Z,3.17
2018-09-26T23:38:07.885Z,3.53
2018-09-26T23:40:36.408Z,3.20
2018-09-26T23:43:04.930Z,4.20
2018-09-26T23:45:33.368Z,4.47
2018-09-26T23:48:01.882Z,5.03
2018-09-26T23:50:30.347Z,4.53
2018-09-26T23:52:58.872Z,4.03
2018-09-26T23:55:27.395Z,4.03
2018-09-26T23:57:55.829Z,4.40
